sensor_id;sensor_type;location;lat;lon;timestamp;P1;durP1;ratioP1;P2;durP2;ratioP2
26540;SDS011;14206;50.202;10.948;2023-06-22T00:00:03;4.53;;;4.13;;
26540;SDS011;14206;50.202;10.948;2023-06-22T00:02:37;4.60;;;4.20;;
26540;SDS011;14206;50.202;10.948;2023-06-22T00:05:05;4.60;;;4.20;;
26540;SDS011;14206;50.202;10.948;2023-06-22T00:07:33;4.72;;;4.30;;
26540;SDS011;14206;50.202;10.948;2023-06-22T00:10:00;5.00;;;4.50;;
26540;SDS011;14206;50.202;10.948;2023-06-22T00:12:27;7.25;;;4.90;;
26540;SDS011;14206;50.202;10.948;2023-06-22T00:14:54;5.05;;;4.65;;
26540;SDS011;14206;50.202;10.948;2023-06-22T00:17:21;4.78;;;4.38;;
26540;SDS011;14206;50.202;10.948;2023-06-22T00:20:03;4.78;;;4.38;;
26540;SDS011;14206;50.202;10.948;2023-06-22T00:22:32;4.88;;;4.47;;
26540;SDS011;14206;50.202;10.948;2023-06-22T00:25:06;4.72;;;4.32;;
26540;SDS011;14206;50.202;10.948;2023-06-22T00:27:34;5.28;;;4.78;;
26540;SDS011;14206;50.202;10.948;2023-06-22T00:30:01;5.05;;;4.63;;
26540;SDS011;14206;50.202;10.948;2023-06-22T00:32:29;5.20;;;4.70;;
26540;SDS011;14206;50.202;10.948;2023-06-22T00:34:56;5.00;;;4.60;;
26540;SDS011;14206;50.202;10.948;2023-06-22T00:37:23;4.80;;;4.40;;
26540;SDS011;14206;50.202;10.948;2023-06-22T00:39:52;4.65;;;4.25;;
26540;SDS011;14206;50.202;10.948;2023-06-22T00:42:19;5.28;;;4.88;;
26540;SDS011;14206;50.202;10.948;2023-06-22T00:44:46;5.35;;;4.85;;
26540;SDS011;14206;50.202;10.948;2023-06-22T00:47:14;5.35;;;4.90;;
26540;SDS011;14206;50.202;10.948;2023-06-22T00:49:44;4.90;;;4.50;;
26540;SDS011;14206;50.202;10.948;2023-06-22T00:52:12;4.95;;;4.55;;
26540;SDS011;14206;50.202;10.948;2023-06-22T00:54:40;5.35;;;4.85;;
26540;SDS011;14206;50.202;10.948;2023-06-22T00:57:11;5.05;;;4.55;;
26540;SDS011;14206;50.202;10.948;2023-06-22T00:59:42;4.75;;;4.35;;
26540;SDS011;14206;50.202;10.948;2023-06-22T01:02:13;4.63;;;4.22;;
26540;SDS011;14206;50.202;10.948;2023-06-22T01:04:40;4.80;;;4.40;;
26540;SDS011;14206;50.202;10.948;2023-06-22T01:09:49;6.00;;;4.25;;
26540;SDS011;14206;50.202;10.948;2023-06-22T01:12:40;4.82;;;4.43;;
26540;SDS011;14206;50.202;10.948;2023-06-22T01:15:16;4.50;;;4.10;;
26540;SDS011;14206;50.202;10.948;2023-06-22T01:17:49;4.40;;;4.00;;
26540;SDS011;14206;50.202;10.948;2023-06-22T01:20:19;4.82;;;4.43;;
26540;SDS011;14206;50.202;10.948;2023-06-22T01:22:59;4.65;;;4.25;;
26540;SDS011;14206;50.202;10.948;2023-06-22T01:26:10;4.68;;;4.28;;
26540;SDS011;14206;50.202;10.948;2023-06-22T01:31:18;4.57;;;4.15;;
26540;SDS011;14206;50.202;10.948;2023-06-22T01:33:49;5.10;;;4.60;;
26540;SDS011;14206;50.202;10.948;2023-06-22T01:36:19;4.65;;;4.25;;
26540;SDS011;14206;50.202;10.948;2023-06-22T01:38:47;5.30;;;4.80;;
26540;SDS011;14206;50.202;10.948;2023-06-22T01:41:17;4.72;;;4.32;;
26540;SDS011;14206;50.202;10.948;2023-06-22T01:43:46;5.75;;;5.25;;
26540;SDS011;14206;50.202;10.948;2023-06-22T01:46:14;5.45;;;4.40;;
26540;SDS011;14206;50.202;10.948;2023-06-22T01:48:44;4.82;;;4.40;;
26540;SDS011;14206;50.202;10.948;2023-06-22T01:51:11;5.10;;;4.60;;
26540;SDS011;14206;50.202;10.948;2023-06-22T01:53:38;4.97;;;4.47;;
26540;SDS011;14206;50.202;10.948;2023-06-22T01:56:05;5.38;;;4.57;;
26540;SDS011;14206;50.202;10.948;2023-06-22T01:58:33;5.25;;;4.75;;
26540;SDS011;14206;50.202;10.948;2023-06-22T02:06:38;5.75;;;4.55;;
26540;SDS011;14206;50.202;10.948;2023-06-22T02:09:12;6.10;;;5.50;;
26540;SDS011;14206;50.202;10.948;2023-06-22T02:11:42;5.88;;;5.30;;
26540;SDS011;14206;50.202;10.948;2023-06-22T02:14:11;5.88;;;5.30;;
26540;SDS011;14206;50.202;10.948;2023-06-22T02:16:40;5.35;;;4.85;;
26540;SDS011;14206;50.202;10.948;2023-06-22T02:19:08;6.25;;;5.07;;
26540;SDS011;14206;50.202;10.948;2023-06-22T02:21:35;5.53;;;5.03;;
26540;SDS011;14206;50.202;10.948;2023-06-22T02:24:02;5.30;;;4.88;;
26540;SDS011;14206;50.202;10.948;2023-06-22T02:26:29;5.40;;;4.90;;
26540;SDS011;14206;50.202;10.948;2023-06-22T02:28:56;5.78;;;5.28;;
26540;SDS011;14206;50.202;10.948;2023-06-22T02:31:23;5.85;;;5.28;;
26540;SDS011;14206;50.202;10.948;2023-06-22T02:33:58;5.97;;;5.38;;
26540;SDS011;14206;50.202;10.948;2023-06-22T02:36:25;5.90;;;5.30;;
26540;SDS011;14206;50.202;10.948;2023-06-22T02:38:53;5.40;;;4.90;;
26540;SDS011;14206;50.202;10.948;2023-06-22T02:41:25;5.30;;;4.82;;
26540;SDS011;14206;50.202;10.948;2023-06-22T02:43:52;5.35;;;4.88;;
26540;SDS011;14206;50.202;10.948;2023-06-22T02:46:18;6.13;;;5.53;;
26540;SDS011;14206;50.202;10.948;2023-06-22T02:48:47;8.57;;;7.75;;
26540;SDS011;14206;50.202;10.948;2023-06-22T02:51:14;11.63;;;10.52;;
26540;SDS011;14206;50.202;10.948;2023-06-22T02:53:41;10.38;;;9.27;;
26540;SDS011;14206;50.202;10.948;2023-06-22T02:56:13;10.73;;;9.63;;
26540;SDS011;14206;50.202;10.948;2023-06-22T02:58:40;12.25;;;10.95;;
26540;SDS011;14206;50.202;10.948;2023-06-22T03:01:09;14.80;;;11.25;;
26540;SDS011;14206;50.202;10.948;2023-06-22T03:03:41;12.02;;;10.25;;
26540;SDS011;14206;50.202;10.948;2023-06-22T03:06:08;12.25;;;11.02;;
26540;SDS011;14206;50.202;10.948;2023-06-22T03:08:40;11.32;;;10.18;;
26540;SDS011;14206;50.202;10.948;2023-06-22T03:11:08;13.00;;;11.70;;
26540;SDS011;14206;50.202;10.948;2023-06-22T03:13:35;13.38;;;11.93;;
26540;SDS011;14206;50.202;10.948;2023-06-22T03:16:02;11.38;;;10.20;;
26540;SDS011;14206;50.202;10.948;2023-06-22T03:18:29;9.48;;;8.48;;
26540;SDS011;14206;50.202;10.948;2023-06-22T03:20:56;7.82;;;7.10;;
26540;SDS011;14206;50.202;10.948;2023-06-22T03:23:23;8.73;;;6.93;;
26540;SDS011;14206;50.202;10.948;2023-06-22T03:25:50;6.95;;;6.25;;
26540;SDS011;14206;50.202;10.948;2023-06-22T03:28:17;6.40;;;5.80;;
26540;SDS011;14206;50.202;10.948;2023-06-22T03:30:44;6.50;;;5.90;;
26540;SDS011;14206;50.202;10.948;2023-06-22T03:33:12;6.57;;;5.97;;
26540;SDS011;14206;50.202;10.948;2023-06-22T03:35:39;6.63;;;6.03;;
26540;SDS011;14206;50.202;10.948;2023-06-22T03:38:07;6.53;;;5.85;;
26540;SDS011;14206;50.202;10.948;2023-06-22T03:40:33;6.82;;;6.22;;
26540;SDS011;14206;50.202;10.948;2023-06-22T03:43:00;10.88;;;8.57;;
26540;SDS011;14206;50.202;10.948;2023-06-22T03:45:29;13.32;;;11.93;;
26540;SDS011;14206;50.202;10.948;2023-06-22T03:47:56;13.48;;;12.07;;
26540;SDS011;14206;50.202;10.948;2023-06-22T03:50:24;13.32;;;11.48;;
26540;SDS011;14206;50.202;10.948;2023-06-22T03:52:59;11.93;;;10.68;;
26540;SDS011;14206;50.202;10.948;2023-06-22T03:55:26;10.35;;;9.27;;
26540;SDS011;14206;50.202;10.948;2023-06-22T03:57:54;11.00;;;9.80;;
26540;SDS011;14206;50.202;10.948;2023-06-22T04:00:23;10.88;;;9.77;;
26540;SDS011;14206;50.202;10.948;2023-06-22T04:02:50;9.43;;;8.52;;
26540;SDS011;14206;50.202;10.948;2023-06-22T04:05:18;9.10;;;7.70;;
26540;SDS011;14206;50.202;10.948;2023-06-22T04:07:45;7.80;;;7.10;;
26540;SDS011;14206;50.202;10.948;2023-06-22T04:10:12;6.93;;;6.25;;
26540;SDS011;14206;50.202;10.948;2023-06-22T04:12:51;9.63;;;8.68;;
26540;SDS011;14206;50.202;10.948;2023-06-22T04:15:18;7.82;;;7.13;;
26540;SDS011;14206;50.202;10.948;2023-06-22T04:17:45;7.30;;;6.60;;
26540;SDS011;14206;50.202;10.948;2023-06-22T04:20:12;6.32;;;5.80;;
26540;SDS011;14206;50.202;10.948;2023-06-22T04:22:38;6.30;;;5.70;;
26540;SDS011;14206;50.202;10.948;2023-06-22T04:25:06;5.80;;;5.30;;
26540;SDS011;14206;50.202;10.948;2023-06-22T04:27:36;5.95;;;5.13;;
26540;SDS011;14206;50.202;10.948;2023-06-22T04:30:06;5.75;;;5.25;;
26540;SDS011;14206;50.202;10.948;2023-06-22T04:32:35;5.45;;;4.95;;
26540;SDS011;14206;50.202;10.948;2023-06-22T04:35:06;5.18;;;4.78;;
26540;SDS011;14206;50.202;10.948;2023-06-22T04:37:33;6.55;;;5.95;;
26540;SDS011;14206;50.202;10.948;2023-06-22T04:40:00;6.18;;;5.50;;
26540;SDS011;14206;50.202;10.948;2023-06-22T04:42:27;6.60;;;5.90;;
26540;SDS011;14206;50.202;10.948;2023-06-22T04:44:54;5.78;;;5.20;;
26540;SDS011;14206;50.202;10.948;2023-06-22T04:47:21;5.57;;;5.05;;
26540;SDS011;14206;50.202;10.948;2023-06-22T04:49:48;5.75;;;5.25;;
26540;SDS011;14206;50.202;10.948;2023-06-22T04:52:15;5.25;;;4.75;;
26540;SDS011;14206;50.202;10.948;2023-06-22T04:54:46;5.90;;;5.30;;
26540;SDS011;14206;50.202;10.948;2023-06-22T04:57:21;6.20;;;5.60;;
26540;SDS011;14206;50.202;10.948;2023-06-22T04:59:58;5.40;;;4.85;;
26540;SDS011;14206;50.202;10.948;2023-06-22T05:02:38;6.07;;;5.20;;
26540;SDS011;14206;50.202;10.948;2023-06-22T05:05:06;7.05;;;5.25;;
26540;SDS011;14206;50.202;10.948;2023-06-22T05:07:34;5.70;;;5.20;;
26540;SDS011;14206;50.202;10.948;2023-06-22T05:10:01;5.82;;;5.32;;
26540;SDS011;14206;50.202;10.948;2023-06-22T05:12:31;6.05;;;5.38;;
26540;SDS011;14206;50.202;10.948;2023-06-22T05:14:58;5.63;;;5.13;;
26540;SDS011;14206;50.202;10.948;2023-06-22T05:17:25;5.78;;;5.28;;
26540;SDS011;14206;50.202;10.948;2023-06-22T05:19:52;6.10;;;5.50;;
26540;SDS011;14206;50.202;10.948;2023-06-22T05:22:20;6.35;;;5.13;;
26540;SDS011;14206;50.202;10.948;2023-06-22T05:24:47;5.07;;;4.68;;
26540;SDS011;14206;50.202;10.948;2023-06-22T05:27:14;5.57;;;4.95;;
26540;SDS011;14206;50.202;10.948;2023-06-22T05:29:41;4.82;;;4.43;;
26540;SDS011;14206;50.202;10.948;2023-06-22T05:32:09;5.00;;;4.60;;
26540;SDS011;14206;50.202;10.948;2023-06-22T05:34:36;5.13;;;4.25;;
26540;SDS011;14206;50.202;10.948;2023-06-22T05:37:04;4.80;;;4.40;;
26540;SDS011;14206;50.202;10.948;2023-06-22T05:39:31;4.85;;;4.45;;
26540;SDS011;14206;50.202;10.948;2023-06-22T05:41:58;4.93;;;4.53;;
26540;SDS011;14206;50.202;10.948;2023-06-22T05:44:25;4.90;;;4.50;;
26540;SDS011;14206;50.202;10.948;2023-06-22T05:46:52;4.60;;;4.20;;
26540;SDS011;14206;50.202;10.948;2023-06-22T05:49:19;4.50;;;4.10;;
26540;SDS011;14206;50.202;10.948;2023-06-22T05:51:48;5.25;;;4.75;;
26540;SDS011;14206;50.202;10.948;2023-06-22T05:54:15;4.90;;;4.47;;
26540;SDS011;14206;50.202;10.948;2023-06-22T05:56:44;4.90;;;4.40;;
26540;SDS011;14206;50.202;10.948;2023-06-22T05:59:11;3.92;;;3.60;;
26540;SDS011;14206;50.202;10.948;2023-06-22T06:01:38;4.22;;;3.92;;
26540;SDS011;14206;50.202;10.948;2023-06-22T06:04:06;4.30;;;3.90;;
26540;SDS011;14206;50.202;10.948;2023-06-22T06:06:36;4.43;;;4.05;;
26540;SDS011;14206;50.202;10.948;2023-06-22T06:09:04;4.45;;;4.05;;
26540;SDS011;14206;50.202;10.948;2023-06-22T06:11:31;4.90;;;4.03;;
26540;SDS011;14206;50.202;10.948;2023-06-22T06:13:58;4.90;;;4.20;;
26540;SDS011;14206;50.202;10.948;2023-06-22T06:16:25;3.83;;;3.53;;
26540;SDS011;14206;50.202;10.948;2023-06-22T06:18:52;4.05;;;3.75;;
26540;SDS011;14206;50.202;10.948;2023-06-22T06:21:21;4.05;;;3.65;;
26540;SDS011;14206;50.202;10.948;2023-06-22T06:23:48;4.15;;;3.83;;
26540;SDS011;14206;50.202;10.948;2023-06-22T06:26:15;3.95;;;3.65;;
26540;SDS011;14206;50.202;10.948;2023-06-22T06:28:43;3.47;;;3.20;;
26540;SDS011;14206;50.202;10.948;2023-06-22T06:31:10;3.75;;;3.45;;
26540;SDS011;14206;50.202;10.948;2023-06-22T06:33:38;3.80;;;3.40;;
26540;SDS011;14206;50.202;10.948;2023-06-22T06:36:05;3.60;;;3.30;;
26540;SDS011;14206;50.202;10.948;2023-06-22T06:38:34;3.70;;;3.40;;
26540;SDS011;14206;50.202;10.948;2023-06-22T06:41:01;3.50;;;3.20;;
26540;SDS011;14206;50.202;10.948;2023-06-22T06:43:28;2.95;;;2.75;;
26540;SDS011;14206;50.202;10.948;2023-06-22T06:45:55;3.45;;;3.15;;
26540;SDS011;14206;50.202;10.948;2023-06-22T06:48:22;3.45;;;3.15;;
26540;SDS011;14206;50.202;10.948;2023-06-22T06:50:49;3.63;;;3.28;;
26540;SDS011;14206;50.202;10.948;2023-06-22T06:53:16;3.50;;;3.20;;
26540;SDS011;14206;50.202;10.948;2023-06-22T06:55:43;3.63;;;3.33;;
26540;SDS011;14206;50.202;10.948;2023-06-22T06:58:12;3.60;;;3.00;;
26540;SDS011;14206;50.202;10.948;2023-06-22T07:00:39;3.45;;;3.15;;
26540;SDS011;14206;50.202;10.948;2023-06-22T07:03:06;3.85;;;3.40;;
26540;SDS011;14206;50.202;10.948;2023-06-22T07:05:36;3.33;;;2.85;;
26540;SDS011;14206;50.202;10.948;2023-06-22T07:08:03;2.92;;;2.72;;
26540;SDS011;14206;50.202;10.948;2023-06-22T07:10:30;3.55;;;3.00;;
26540;SDS011;14206;50.202;10.948;2023-06-22T07:12:57;3.28;;;2.97;;
26540;SDS011;14206;50.202;10.948;2023-06-22T07:15:24;3.67;;;3.38;;
26540;SDS011;14206;50.202;10.948;2023-06-22T07:17:51;3.42;;;3.15;;
26540;SDS011;14206;50.202;10.948;2023-06-22T07:20:21;3.65;;;3.35;;
26540;SDS011;14206;50.202;10.948;2023-06-22T07:22:48;3.58;;;3.28;;
26540;SDS011;14206;50.202;10.948;2023-06-22T07:25:15;2.80;;;2.60;;
26540;SDS011;14206;50.202;10.948;2023-06-22T07:27:44;5.72;;;4.18;;
26540;SDS011;14206;50.202;10.948;2023-06-22T07:30:14;3.15;;;2.78;;
26540;SDS011;14206;50.202;10.948;2023-06-22T07:32:41;3.50;;;3.20;;
26540;SDS011;14206;50.202;10.948;2023-06-22T07:35:08;3.70;;;3.40;;
26540;SDS011;14206;50.202;10.948;2023-06-22T07:37:35;4.07;;;3.67;;
26540;SDS011;14206;50.202;10.948;2023-06-22T07:40:02;3.60;;;3.30;;
26540;SDS011;14206;50.202;10.948;2023-06-22T07:42:32;4.68;;;4.28;;
26540;SDS011;14206;50.202;10.948;2023-06-22T07:44:59;4.35;;;4.00;;
26540;SDS011;14206;50.202;10.948;2023-06-22T07:47:27;4.10;;;3.80;;
26540;SDS011;14206;50.202;10.948;2023-06-22T07:49:55;3.33;;;3.00;;
26540;SDS011;14206;50.202;10.948;2023-06-22T07:52:24;3.30;;;3.00;;
26540;SDS011;14206;50.202;10.948;2023-06-22T07:54:54;3.08;;;2.88;;
26540;SDS011;14206;50.202;10.948;2023-06-22T07:57:21;3.20;;;2.97;;
26540;SDS011;14206;50.202;10.948;2023-06-22T07:59:48;3.17;;;2.90;;
26540;SDS011;14206;50.202;10.948;2023-06-22T08:02:15;3.75;;;3.45;;
26540;SDS011;14206;50.202;10.948;2023-06-22T08:04:42;3.50;;;3.20;;
26540;SDS011;14206;50.202;10.948;2023-06-22T08:07:09;3.42;;;3.13;;
26540;SDS011;14206;50.202;10.948;2023-06-22T08:09:36;4.13;;;3.70;;
26540;SDS011;14206;50.202;10.948;2023-06-22T08:12:03;4.15;;;3.15;;
26540;SDS011;14206;50.202;10.948;2023-06-22T08:14:31;3.60;;;3.30;;
26540;SDS011;14206;50.202;10.948;2023-06-22T08:16:58;2.80;;;2.60;;
26540;SDS011;14206;50.202;10.948;2023-06-22T08:19:25;2.90;;;2.70;;
26540;SDS011;14206;50.202;10.948;2023-06-22T08:21:52;3.78;;;3.38;;
26540;SDS011;14206;50.202;10.948;2023-06-22T08:24:19;3.00;;;2.78;;
26540;SDS011;14206;50.202;10.948;2023-06-22T08:26:46;3.15;;;2.95;;
26540;SDS011;14206;50.202;10.948;2023-06-22T08:29:13;3.78;;;3.47;;
26540;SDS011;14206;50.202;10.948;2023-06-22T08:31:40;3.33;;;3.00;;
26540;SDS011;14206;50.202;10.948;2023-06-22T08:34:07;3.28;;;2.75;;
26540;SDS011;14206;50.202;10.948;2023-06-22T08:36:43;2.70;;;2.50;;
26540;SDS011;14206;50.202;10.948;2023-06-22T08:39:18;3.72;;;3.42;;
26540;SDS011;14206;50.202;10.948;2023-06-22T08:41:46;4.30;;;3.53;;
26540;SDS011;14206;50.202;10.948;2023-06-22T08:44:15;3.40;;;3.10;;
26540;SDS011;14206;50.202;10.948;2023-06-22T08:46:45;4.63;;;3.75;;
26540;SDS011;14206;50.202;10.948;2023-06-22T08:49:14;4.10;;;3.70;;
26540;SDS011;14206;50.202;10.948;2023-06-22T08:51:41;5.00;;;3.00;;
26540;SDS011;14206;50.202;10.948;2023-06-22T08:54:08;4.50;;;3.22;;
26540;SDS011;14206;50.202;10.948;2023-06-22T08:56:35;3.80;;;3.50;;
26540;SDS011;14206;50.202;10.948;2023-06-22T08:59:02;4.00;;;3.58;;
26540;SDS011;14206;50.202;10.948;2023-06-22T09:01:29;4.53;;;3.65;;
26540;SDS011;14206;50.202;10.948;2023-06-22T09:03:56;5.30;;;3.85;;
26540;SDS011;14206;50.202;10.948;2023-06-22T09:06:24;5.72;;;3.40;;
26540;SDS011;14206;50.202;10.948;2023-06-22T09:08:51;5.03;;;3.50;;
26540;SDS011;14206;50.202;10.948;2023-06-22T09:11:18;4.50;;;3.40;;
26540;SDS011;14206;50.202;10.948;2023-06-22T09:13:45;3.75;;;3.45;;
26540;SDS011;14206;50.202;10.948;2023-06-22T09:16:12;3.60;;;3.30;;
26540;SDS011;14206;50.202;10.948;2023-06-22T09:18:40;6.65;;;3.50;;
26540;SDS011;14206;50.202;10.948;2023-06-22T09:21:07;2.58;;;2.38;;
26540;SDS011;14206;50.202;10.948;2023-06-22T09:23:34;3.03;;;2.83;;
26540;SDS011;14206;50.202;10.948;2023-06-22T09:26:01;3.35;;;3.05;;
26540;SDS011;14206;50.202;10.948;2023-06-22T09:28:29;3.42;;;2.90;;
26540;SDS011;14206;50.202;10.948;2023-06-22T09:30:56;3.50;;;3.20;;
26540;SDS011;14206;50.202;10.948;2023-06-22T09:33:25;2.88;;;2.60;;
26540;SDS011;14206;50.202;10.948;2023-06-22T09:35:52;4.68;;;3.50;;
26540;SDS011;14206;50.202;10.948;2023-06-22T09:38:19;5.32;;;3.90;;
26540;SDS011;14206;50.202;10.948;2023-06-22T09:40:46;2.75;;;2.55;;
26540;SDS011;14206;50.202;10.948;2023-06-22T09:43:13;3.08;;;2.80;;
26540;SDS011;14206;50.202;10.948;2023-06-22T09:45:40;2.60;;;2.40;;
26540;SDS011;14206;50.202;10.948;2023-06-22T09:48:08;3.00;;;2.80;;
26540;SDS011;14206;50.202;10.948;2023-06-22T09:50:38;3.20;;;2.90;;
26540;SDS011;14206;50.202;10.948;2023-06-22T09:55:38;3.33;;;3.03;;
26540;SDS011;14206;50.202;10.948;2023-06-22T09:58:05;2.97;;;2.58;;
26540;SDS011;14206;50.202;10.948;2023-06-22T10:00:32;2.60;;;2.40;;
26540;SDS011;14206;50.202;10.948;2023-06-22T10:02:59;3.28;;;3.00;;
26540;SDS011;14206;50.202;10.948;2023-06-22T10:05:27;3.67;;;2.67;;
26540;SDS011;14206;50.202;10.948;2023-06-22T10:07:54;2.50;;;2.30;;
26540;SDS011;14206;50.202;10.948;2023-06-22T10:10:21;2.83;;;2.33;;
26540;SDS011;14206;50.202;10.948;2023-06-22T10:12:54;2.80;;;2.50;;
26540;SDS011;14206;50.202;10.948;2023-06-22T10:15:23;2.85;;;2.53;;
26540;SDS011;14206;50.202;10.948;2023-06-22T10:17:54;3.92;;;2.80;;
26540;SDS011;14206;50.202;10.948;2023-06-22T10:20:21;2.63;;;2.42;;
26540;SDS011;14206;50.202;10.948;2023-06-22T10:22:48;3.15;;;2.67;;
26540;SDS011;14206;50.202;10.948;2023-06-22T10:25:15;2.78;;;2.58;;
26540;SDS011;14206;50.202;10.948;2023-06-22T10:27:42;2.90;;;2.60;;
26540;SDS011;14206;50.202;10.948;2023-06-22T10:30:10;2.53;;;2.33;;
26540;SDS011;14206;50.202;10.948;2023-06-22T10:32:42;2.55;;;2.33;;
26540;SDS011;14206;50.202;10.948;2023-06-22T10:35:10;2.00;;;1.90;;
26540;SDS011;14206;50.202;10.948;2023-06-22T10:37:39;2.50;;;2.30;;
26540;SDS011;14206;50.202;10.948;2023-06-22T10:40:06;2.78;;;2.58;;
26540;SDS011;14206;50.202;10.948;2023-06-22T10:42:34;3.03;;;2.80;;
26540;SDS011;14206;50.202;10.948;2023-06-22T10:45:01;2.50;;;2.30;;
26540;SDS011;14206;50.202;10.948;2023-06-22T10:47:29;3.10;;;2.80;;
26540;SDS011;14206;50.202;10.948;2023-06-22T10:49:56;2.65;;;2.30;;
26540;SDS011;14206;50.202;10.948;2023-06-22T10:52:23;2.20;;;2.00;;
26540;SDS011;14206;50.202;10.948;2023-06-22T10:54:50;2.50;;;2.30;;
26540;SDS011;14206;50.202;10.948;2023-06-22T10:57:18;2.10;;;1.90;;
26540;SDS011;14206;50.202;10.948;2023-06-22T10:59:45;2.92;;;2.60;;
26540;SDS011;14206;50.202;10.948;2023-06-22T11:02:12;2.85;;;2.60;;
26540;SDS011;14206;50.202;10.948;2023-06-22T11:04:41;2.50;;;2.30;;
26540;SDS011;14206;50.202;10.948;2023-06-22T11:07:08;3.05;;;2.45;;
26540;SDS011;14206;50.202;10.948;2023-06-22T11:09:36;2.92;;;2.10;;
26540;SDS011;14206;50.202;10.948;2023-06-22T11:12:05;2.60;;;2.40;;
26540;SDS011;14206;50.202;10.948;2023-06-22T11:14:33;3.30;;;2.88;;
26540;SDS011;14206;50.202;10.948;2023-06-22T11:17:00;2.95;;;2.65;;
26540;SDS011;14206;50.202;10.948;2023-06-22T11:19:27;2.88;;;2.55;;
26540;SDS011;14206;50.202;10.948;2023-06-22T11:21:54;2.55;;;2.28;;
26540;SDS011;14206;50.202;10.948;2023-06-22T11:24:21;3.50;;;2.78;;
26540;SDS011;14206;50.202;10.948;2023-06-22T11:26:48;3.30;;;2.65;;
26540;SDS011;14206;50.202;10.948;2023-06-22T11:29:15;3.55;;;2.47;;
26540;SDS011;14206;50.202;10.948;2023-06-22T11:32:01;4.50;;;3.30;;
26540;SDS011;14206;50.202;10.948;2023-06-22T11:34:28;3.47;;;2.80;;
26540;SDS011;14206;50.202;10.948;2023-06-22T11:36:55;2.20;;;2.00;;
26540;SDS011;14206;50.202;10.948;2023-06-22T11:39:22;4.40;;;2.70;;
26540;SDS011;14206;50.202;10.948;2023-06-22T11:42:06;6.63;;;2.67;;
26540;SDS011;14206;50.202;10.948;2023-06-22T11:44:34;2.55;;;2.35;;
26540;SDS011;14206;50.202;10.948;2023-06-22T11:47:01;2.92;;;2.60;;
26540;SDS011;14206;50.202;10.948;2023-06-22T11:49:30;1.83;;;1.73;;
26540;SDS011;14206;50.202;10.948;2023-06-22T11:51:57;2.22;;;1.92;;
26540;SDS011;14206;50.202;10.948;2023-06-22T11:54:24;7.03;;;2.70;;
26540;SDS011;14206;50.202;10.948;2023-06-22T11:56:51;3.22;;;2.80;;
26540;SDS011;14206;50.202;10.948;2023-06-22T11:59:18;2.28;;;2.10;;
26540;SDS011;14206;50.202;10.948;2023-06-22T12:01:45;2.17;;;2.08;;
26540;SDS011;14206;50.202;10.948;2023-06-22T12:04:12;2.42;;;2.22;;
26540;SDS011;14206;50.202;10.948;2023-06-22T12:06:40;3.13;;;2.30;;
26540;SDS011;14206;50.202;10.948;2023-06-22T12:09:09;2.30;;;2.10;;
26540;SDS011;14206;50.202;10.948;2023-06-22T12:11:36;2.58;;;2.38;;
26540;SDS011;14206;50.202;10.948;2023-06-22T12:14:03;2.97;;;2.67;;
26540;SDS011;14206;50.202;10.948;2023-06-22T12:16:30;2.83;;;2.63;;
26540;SDS011;14206;50.202;10.948;2023-06-22T12:18:57;3.60;;;2.90;;
26540;SDS011;14206;50.202;10.948;2023-06-22T12:21:24;2.53;;;2.28;;
26540;SDS011;14206;50.202;10.948;2023-06-22T12:23:51;2.20;;;2.00;;
26540;SDS011;14206;50.202;10.948;2023-06-22T12:26:18;3.58;;;2.30;;
26540;SDS011;14206;50.202;10.948;2023-06-22T12:28:45;2.63;;;2.42;;
26540;SDS011;14206;50.202;10.948;2023-06-22T12:31:14;1.90;;;1.80;;
26540;SDS011;14206;50.202;10.948;2023-06-22T12:33:41;2.30;;;2.10;;
26540;SDS011;14206;50.202;10.948;2023-06-22T12:36:08;2.60;;;2.40;;
26540;SDS011;14206;50.202;10.948;2023-06-22T12:38:35;2.20;;;2.00;;
26540;SDS011;14206;50.202;10.948;2023-06-22T12:41:02;2.55;;;2.35;;
26540;SDS011;14206;50.202;10.948;2023-06-22T12:43:29;2.92;;;2.55;;
26540;SDS011;14206;50.202;10.948;2023-06-22T12:45:55;2.20;;;2.00;;
26540;SDS011;14206;50.202;10.948;2023-06-22T12:48:23;2.03;;;1.83;;
26540;SDS011;14206;50.202;10.948;2023-06-22T12:50:51;1.92;;;1.83;;
26540;SDS011;14206;50.202;10.948;2023-06-22T12:53:20;3.85;;;3.13;;
26540;SDS011;14206;50.202;10.948;2023-06-22T12:55:48;2.50;;;2.28;;
26540;SDS011;14206;50.202;10.948;2023-06-22T12:58:15;2.45;;;2.25;;
26540;SDS011;14206;50.202;10.948;2023-06-22T13:00:43;2.83;;;2.60;;
26540;SDS011;14206;50.202;10.948;2023-06-22T13:03:10;2.53;;;2.08;;
26540;SDS011;14206;50.202;10.948;2023-06-22T13:05:37;3.58;;;2.33;;
26540;SDS011;14206;50.202;10.948;2023-06-22T13:08:04;3.50;;;2.65;;
26540;SDS011;14206;50.202;10.948;2023-06-22T13:10:31;5.63;;;3.55;;
26540;SDS011;14206;50.202;10.948;2023-06-22T13:12:58;3.67;;;2.80;;
26540;SDS011;14206;50.202;10.948;2023-06-22T13:15:27;3.33;;;2.63;;
26540;SDS011;14206;50.202;10.948;2023-06-22T13:17:56;5.05;;;3.88;;
26540;SDS011;14206;50.202;10.948;2023-06-22T13:20:23;3.97;;;3.53;;
26540;SDS011;14206;50.202;10.948;2023-06-22T13:22:50;3.40;;;2.55;;
26540;SDS011;14206;50.202;10.948;2023-06-22T13:25:17;2.65;;;2.22;;
26540;SDS011;14206;50.202;10.948;2023-06-22T13:27:46;2.40;;;2.20;;
26540;SDS011;14206;50.202;10.948;2023-06-22T13:30:13;2.42;;;2.22;;
26540;SDS011;14206;50.202;10.948;2023-06-22T13:32:40;3.42;;;2.50;;
26540;SDS011;14206;50.202;10.948;2023-06-22T13:35:13;2.72;;;2.20;;
26540;SDS011;14206;50.202;10.948;2023-06-22T13:37:40;1.70;;;1.55;;
26540;SDS011;14206;50.202;10.948;2023-06-22T13:40:07;3.33;;;1.85;;
26540;SDS011;14206;50.202;10.948;2023-06-22T13:42:34;4.38;;;2.60;;
26540;SDS011;14206;50.202;10.948;2023-06-22T13:45:02;3.33;;;2.35;;
26540;SDS011;14206;50.202;10.948;2023-06-22T13:47:29;2.28;;;2.08;;
26540;SDS011;14206;50.202;10.948;2023-06-22T13:49:57;5.38;;;3.63;;
26540;SDS011;14206;50.202;10.948;2023-06-22T13:52:25;3.92;;;2.17;;
26540;SDS011;14206;50.202;10.948;2023-06-22T13:54:52;3.58;;;2.90;;
26540;SDS011;14206;50.202;10.948;2023-06-22T13:57:19;3.13;;;2.53;;
26540;SDS011;14206;50.202;10.948;2023-06-22T13:59:46;3.70;;;2.70;;
26540;SDS011;14206;50.202;10.948;2023-06-22T14:02:13;3.75;;;2.60;;
26540;SDS011;14206;50.202;10.948;2023-06-22T14:04:40;5.00;;;3.45;;
26540;SDS011;14206;50.202;10.948;2023-06-22T14:07:07;4.80;;;3.00;;
26540;SDS011;14206;50.202;10.948;2023-06-22T14:09:34;6.05;;;3.53;;
26540;SDS011;14206;50.202;10.948;2023-06-22T14:12:05;5.20;;;3.15;;
26540;SDS011;14206;50.202;10.948;2023-06-22T14:14:32;4.60;;;3.30;;
26540;SDS011;14206;50.202;10.948;2023-06-22T14:17:00;4.47;;;3.08;;
26540;SDS011;14206;50.202;10.948;2023-06-22T14:19:27;3.92;;;3.03;;
26540;SDS011;14206;50.202;10.948;2023-06-22T14:21:54;4.32;;;2.90;;
26540;SDS011;14206;50.202;10.948;2023-06-22T14:24:21;4.63;;;2.60;;
26540;SDS011;14206;50.202;10.948;2023-06-22T14:26:51;3.45;;;2.33;;
26540;SDS011;14206;50.202;10.948;2023-06-22T14:29:17;5.18;;;3.00;;
26540;SDS011;14206;50.202;10.948;2023-06-22T14:31:45;3.88;;;2.90;;
26540;SDS011;14206;50.202;10.948;2023-06-22T14:34:13;5.80;;;3.65;;
26540;SDS011;14206;50.202;10.948;2023-06-22T14:36:44;4.05;;;3.10;;
26540;SDS011;14206;50.202;10.948;2023-06-22T14:39:11;4.63;;;3.05;;
26540;SDS011;14206;50.202;10.948;2023-06-22T14:41:38;3.05;;;2.63;;
26540;SDS011;14206;50.202;10.948;2023-06-22T14:44:04;4.35;;;3.25;;
26540;SDS011;14206;50.202;10.948;2023-06-22T14:46:31;4.07;;;3.42;;
26540;SDS011;14206;50.202;10.948;2023-06-22T14:48:58;4.32;;;3.03;;
26540;SDS011;14206;50.202;10.948;2023-06-22T14:51:25;5.18;;;3.10;;